sensor_id;sensor_type;location;lat;lon;timestamp;P1;durP1;ratioP1;P2;durP2;ratioP2
70071;SDS011;57434;42.794;23.302;2022-12-24T06:34:49;63.33;;;27.65;;
70071;SDS011;57434;42.794;23.302;2022-12-24T06:35:51;64.57;;;29.10;;
70071;SDS011;57434;42.794;23.302;2022-12-24T06:36:53;67.82;;;28.55;;
70071;SDS011;57434;42.794;23.302;2022-12-24T06:37:55;69.25;;;30.90;;
70071;SDS011;57434;42.794;23.302;2022-12-24T06:38:56;73.68;;;31.08;;
70071;SDS011;57434;42.794;23.302;2022-12-24T06:39:58;76.38;;;34.10;;
70071;SDS011;57434;42.794;23.302;2022-12-24T06:41:04;75.20;;;33.67;;
70071;SDS011;57434;42.794;23.302;2022-12-24T06:42:07;66.30;;;31.08;;
70071;SDS011;57434;42.794;23.302;2022-12-24T06:43:09;78.07;;;32.47;;
70071;SDS011;57434;42.794;23.302;2022-12-24T06:44:11;67.43;;;32.58;;
70071;SDS011;57434;42.794;23.302;2022-12-24T06:45:13;81.88;;;33.88;;
70071;SDS011;57434;42.794;23.302;2022-12-24T06:46:15;87.57;;;36.20;;
70071;SDS011;57434;42.794;23.302;2022-12-24T06:47:18;87.72;;;35.55;;
70071;SDS011;57434;42.794;23.302;2022-12-24T06:48:19;98.53;;;40.90;;
70071;SDS011;57434;42.794;23.302;2022-12-24T06:49:21;91.03;;;39.17;;
70071;SDS011;57434;42.794;23.302;2022-12-24T06:50:23;87.43;;;38.22;;
70071;SDS011;57434;42.794;23.302;2022-12-24T06:51:25;100.03;;;39.70;;
70071;SDS011;57434;42.794;23.302;2022-12-24T06:52:26;105.00;;;41.75;;
70071;SDS011;57434;42.794;23.302;2022-12-24T06:53:28;105.95;;;41.83;;
70071;SDS011;57434;42.794;23.302;2022-12-24T06:54:31;107.05;;;41.92;;
70071;SDS011;57434;42.794;23.302;2022-12-24T06:55:33;108.43;;;40.28;;
70071;SDS011;57434;42.794;23.302;2022-12-24T06:56:35;100.07;;;42.83;;
70071;SDS011;57434;42.794;23.302;2022-12-24T06:57:37;110.07;;;41.88;;
70071;SDS011;57434;42.794;23.302;2022-12-24T06:58:39;100.35;;;39.45;;
70071;SDS011;57434;42.794;23.302;2022-12-24T06:59:42;107.30;;;42.40;;
70071;SDS011;57434;42.794;23.302;2022-12-24T07:00:43;107.15;;;47.38;;
70071;SDS011;57434;42.794;23.302;2022-12-24T07:01:48;102.82;;;44.65;;
70071;SDS011;57434;42.794;23.302;2022-12-24T07:02:50;102.25;;;38.55;;
70071;SDS011;57434;42.794;23.302;2022-12-24T07:03:52;79.95;;;34.22;;
70071;SDS011;57434;42.794;23.302;2022-12-24T07:04:53;69.13;;;31.33;;
70071;SDS011;57434;42.794;23.302;2022-12-24T07:05:55;77.93;;;29.75;;
70071;SDS011;57434;42.794;23.302;2022-12-24T07:06:58;78.60;;;30.73;;
70071;SDS011;57434;42.794;23.302;2022-12-24T07:07:59;73.28;;;31.25;;
70071;SDS011;57434;42.794;23.302;2022-12-24T07:09:01;75.57;;;31.17;;
70071;SDS011;57434;42.794;23.302;2022-12-24T07:10:03;67.05;;;31.52;;
70071;SDS011;57434;42.794;23.302;2022-12-24T07:11:06;63.65;;;29.88;;
70071;SDS011;57434;42.794;23.302;2022-12-24T07:12:08;69.03;;;29.88;;
70071;SDS011;57434;42.794;23.302;2022-12-24T07:13:10;78.65;;;32.75;;
70071;SDS011;57434;42.794;23.302;2022-12-24T07:14:11;62.42;;;29.00;;
70071;SDS011;57434;42.794;23.302;2022-12-24T07:15:14;70.43;;;29.60;;
70071;SDS011;57434;42.794;23.302;2022-12-24T07:16:16;81.65;;;33.38;;
70071;SDS011;57434;42.794;23.302;2022-12-24T07:17:18;83.97;;;34.57;;
70071;SDS011;57434;42.794;23.302;2022-12-24T07:18:20;86.75;;;33.88;;
70071;SDS011;57434;42.794;23.302;2022-12-24T07:19:22;58.55;;;25.85;;
70071;SDS011;57434;42.794;23.302;2022-12-24T07:20:24;71.22;;;29.65;;
70071;SDS011;57434;42.794;23.302;2022-12-24T07:21:26;72.63;;;29.38;;
70071;SDS011;57434;42.794;23.302;2022-12-24T07:22:28;60.28;;;27.38;;
70071;SDS011;57434;42.794;23.302;2022-12-24T07:23:30;63.70;;;26.77;;
70071;SDS011;57434;42.794;23.302;2022-12-24T07:24:31;72.18;;;32.58;;
70071;SDS011;57434;42.794;23.302;2022-12-24T07:25:33;70.28;;;32.75;;
70071;SDS011;57434;42.794;23.302;2022-12-24T07:26:35;74.68;;;31.27;;
70071;SDS011;57434;42.794;23.302;2022-12-24T07:27:37;67.60;;;29.90;;
70071;SDS011;57434;42.794;23.302;2022-12-24T07:28:39;56.58;;;26.80;;
70071;SDS011;57434;42.794;23.302;2022-12-24T07:29:41;54.13;;;25.58;;
70071;SDS011;57434;42.794;23.302;2022-12-24T07:30:43;54.78;;;23.50;;
70071;SDS011;57434;42.794;23.302;2022-12-24T07:31:45;61.97;;;25.67;;
70071;SDS011;57434;42.794;23.302;2022-12-24T07:32:47;62.30;;;26.77;;
70071;SDS011;57434;42.794;23.302;2022-12-24T07:33:49;58.08;;;25.85;;
70071;SDS011;57434;42.794;23.302;2022-12-24T07:34:51;62.45;;;26.27;;
70071;SDS011;57434;42.794;23.302;2022-12-24T07:35:56;75.03;;;32.67;;
70071;SDS011;57434;42.794;23.302;2022-12-24T07:37:02;79.30;;;33.50;;
70071;SDS011;57434;42.794;23.302;2022-12-24T07:38:04;70.70;;;30.57;;
70071;SDS011;57434;42.794;23.302;2022-12-24T07:39:06;68.97;;;32.28;;
70071;SDS011;57434;42.794;23.302;2022-12-24T07:40:08;62.97;;;30.90;;
70071;SDS011;57434;42.794;23.302;2022-12-24T07:41:10;73.10;;;32.40;;
70071;SDS011;57434;42.794;23.302;2022-12-24T07:42:12;79.32;;;38.25;;
70071;SDS011;57434;42.794;23.302;2022-12-24T07:43:14;77.95;;;33.65;;
70071;SDS011;57434;42.794;23.302;2022-12-24T07:44:16;86.07;;;37.58;;
70071;SDS011;57434;42.794;23.302;2022-12-24T07:45:18;84.70;;;35.17;;
70071;SDS011;57434;42.794;23.302;2022-12-24T07:46:20;84.57;;;37.15;;
70071;SDS011;57434;42.794;23.302;2022-12-24T07:47:22;92.70;;;45.40;;
70071;SDS011;57434;42.794;23.302;2022-12-24T07:48:24;93.20;;;45.27;;
70071;SDS011;57434;42.794;23.302;2022-12-24T07:49:27;92.03;;;42.60;;
70071;SDS011;57434;42.794;23.302;2022-12-24T07:50:29;68.07;;;32.45;;
70071;SDS011;57434;42.794;23.302;2022-12-24T07:51:31;63.58;;;27.88;;
70071;SDS011;57434;42.794;23.302;2022-12-24T07:52:33;57.50;;;26.58;;
70071;SDS011;57434;42.794;23.302;2022-12-24T07:53:35;77.03;;;32.70;;
70071;SDS011;57434;42.794;23.302;2022-12-24T07:54:39;124.55;;;46.30;;
70071;SDS011;57434;42.794;23.302;2022-12-24T07:55:45;103.32;;;39.55;;
70071;SDS011;57434;42.794;23.302;2022-12-24T07:57:31;91.38;;;33.40;;
70071;SDS011;57434;42.794;23.302;2022-12-24T07:58:33;76.57;;;32.30;;
70071;SDS011;57434;42.794;23.302;2022-12-24T07:59:35;67.30;;;29.93;;
70071;SDS011;57434;42.794;23.302;2022-12-24T08:00:37;71.20;;;30.92;;
70071;SDS011;57434;42.794;23.302;2022-12-24T08:01:39;62.75;;;28.42;;
70071;SDS011;57434;42.794;23.302;2022-12-24T08:02:42;74.72;;;34.00;;
70071;SDS011;57434;42.794;23.302;2022-12-24T08:03:46;62.28;;;30.15;;
70071;SDS011;57434;42.794;23.302;2022-12-24T08:04:49;108.60;;;49.88;;
70071;SDS011;57434;42.794;23.302;2022-12-24T08:05:52;102.35;;;46.67;;
70071;SDS011;57434;42.794;23.302;2022-12-24T08:06:54;74.90;;;34.28;;
70071;SDS011;57434;42.794;23.302;2022-12-24T08:07:56;63.95;;;29.52;;
70071;SDS011;57434;42.794;23.302;2022-12-24T08:08:59;59.25;;;25.63;;
70071;SDS011;57434;42.794;23.302;2022-12-24T08:10:03;58.50;;;25.47;;
70071;SDS011;57434;42.794;23.302;2022-12-24T08:11:06;54.72;;;25.55;;
70071;SDS011;57434;42.794;23.302;2022-12-24T08:12:09;62.75;;;29.33;;
70071;SDS011;57434;42.794;23.302;2022-12-24T08:13:11;71.50;;;31.13;;
70071;SDS011;57434;42.794;23.302;2022-12-24T08:14:15;68.75;;;30.23;;
70071;SDS011;57434;42.794;23.302;2022-12-24T08:15:17;64.97;;;28.90;;
70071;SDS011;57434;42.794;23.302;2022-12-24T08:16:19;67.72;;;29.42;;
70071;SDS011;57434;42.794;23.302;2022-12-24T08:17:22;66.60;;;29.63;;
70071;SDS011;57434;42.794;23.302;2022-12-24T08:18:32;65.70;;;31.25;;
70071;SDS011;57434;42.794;23.302;2022-12-24T08:19:36;63.45;;;30.20;;
70071;SDS011;57434;42.794;23.302;2022-12-24T08:20:39;66.80;;;29.17;;
70071;SDS011;57434;42.794;23.302;2022-12-24T08:21:42;65.25;;;29.35;;
70071;SDS011;57434;42.794;23.302;2022-12-24T08:22:45;73.05;;;32.25;;
70071;SDS011;57434;42.794;23.302;2022-12-24T08:23:49;69.82;;;31.88;;
70071;SDS011;57434;42.794;23.302;2022-12-24T08:24:52;67.05;;;31.13;;
70071;SDS011;57434;42.794;23.302;2022-12-24T08:25:55;69.20;;;30.02;;
70071;SDS011;57434;42.794;23.302;2022-12-24T08:26:58;63.15;;;29.85;;
70071;SDS011;57434;42.794;23.302;2022-12-24T08:28:01;74.43;;;32.38;;
70071;SDS011;57434;42.794;23.302;2022-12-24T08:29:05;74.28;;;33.20;;
70071;SDS011;57434;42.794;23.302;2022-12-24T08:30:08;81.82;;;35.30;;
70071;SDS011;57434;42.794;23.302;2022-12-24T08:31:19;76.17;;;33.67;;
70071;SDS011;57434;42.794;23.302;2022-12-24T08:32:22;78.32;;;32.75;;
70071;SDS011;57434;42.794;23.302;2022-12-24T08:33:25;82.88;;;34.15;;
70071;SDS011;57434;42.794;23.302;2022-12-24T08:34:28;79.10;;;33.88;;
70071;SDS011;57434;42.794;23.302;2022-12-24T08:35:32;76.72;;;33.60;;
70071;SDS011;57434;42.794;23.302;2022-12-24T08:36:35;84.35;;;35.15;;
70071;SDS011;57434;42.794;23.302;2022-12-24T08:37:38;87.40;;;36.38;;
70071;SDS011;57434;42.794;23.302;2022-12-24T08:38:41;84.60;;;34.88;;
70071;SDS011;57434;42.794;23.302;2022-12-24T08:39:43;87.50;;;36.40;;
70071;SDS011;57434;42.794;23.302;2022-12-24T08:40:46;81.00;;;34.05;;
70071;SDS011;57434;42.794;23.302;2022-12-24T08:41:49;84.03;;;36.07;;
70071;SDS011;57434;42.794;23.302;2022-12-24T08:42:52;81.93;;;35.40;;
70071;SDS011;57434;42.794;23.302;2022-12-24T08:43:55;76.80;;;34.13;;
70071;SDS011;57434;42.794;23.302;2022-12-24T08:44:58;82.10;;;36.28;;
70071;SDS011;57434;42.794;23.302;2022-12-24T08:46:03;88.32;;;40.88;;
70071;SDS011;57434;42.794;23.302;2022-12-24T08:47:07;87.55;;;39.70;;
70071;SDS011;57434;42.794;23.302;2022-12-24T08:48:10;134.93;;;58.00;;
70071;SDS011;57434;42.794;23.302;2022-12-24T08:49:13;119.78;;;51.88;;
70071;SDS011;57434;42.794;23.302;2022-12-24T08:50:16;84.50;;;38.58;;
70071;SDS011;57434;42.794;23.302;2022-12-24T08:51:17;105.38;;;45.38;;
70071;SDS011;57434;42.794;23.302;2022-12-24T08:52:19;83.63;;;40.00;;
70071;SDS011;57434;42.794;23.302;2022-12-24T08:53:21;81.15;;;38.53;;
70071;SDS011;57434;42.794;23.302;2022-12-24T08:54:25;92.60;;;39.55;;
70071;SDS011;57434;42.794;23.302;2022-12-24T08:55:28;83.35;;;36.08;;
70071;SDS011;57434;42.794;23.302;2022-12-24T08:56:30;91.55;;;38.40;;
70071;SDS011;57434;42.794;23.302;2022-12-24T08:57:36;89.75;;;39.67;;
70071;SDS011;57434;42.794;23.302;2022-12-24T08:58:39;81.65;;;35.80;;
70071;SDS011;57434;42.794;23.302;2022-12-24T08:59:41;83.13;;;38.45;;
70071;SDS011;57434;42.794;23.302;2022-12-24T09:00:43;89.40;;;38.42;;
70071;SDS011;57434;42.794;23.302;2022-12-24T09:01:45;69.75;;;36.60;;
70071;SDS011;57434;42.794;23.302;2022-12-24T09:02:48;75.00;;;34.67;;
70071;SDS011;57434;42.794;23.302;2022-12-24T09:03:52;78.25;;;37.03;;
70071;SDS011;57434;42.794;23.302;2022-12-24T09:04:55;85.60;;;38.47;;
70071;SDS011;57434;42.794;23.302;2022-12-24T09:05:57;85.95;;;40.53;;
70071;SDS011;57434;42.794;23.302;2022-12-24T09:06:59;95.00;;;42.38;;
70071;SDS011;57434;42.794;23.302;2022-12-24T09:08:00;81.72;;;38.05;;
70071;SDS011;57434;42.794;23.302;2022-12-24T09:09:03;80.68;;;34.45;;
70071;SDS011;57434;42.794;23.302;2022-12-24T09:10:05;81.45;;;34.17;;
70071;SDS011;57434;42.794;23.302;2022-12-24T09:11:09;83.53;;;36.63;;
70071;SDS011;57434;42.794;23.302;2022-12-24T09:12:13;72.70;;;32.83;;
70071;SDS011;57434;42.794;23.302;2022-12-24T09:13:15;71.73;;;34.20;;
70071;SDS011;57434;42.794;23.302;2022-12-24T09:14:17;73.57;;;33.53;;
70071;SDS011;57434;42.794;23.302;2022-12-24T09:15:18;66.10;;;29.95;;
70071;SDS011;57434;42.794;23.302;2022-12-24T09:16:20;65.40;;;30.83;;
70071;SDS011;57434;42.794;23.302;2022-12-24T09:17:22;69.47;;;31.52;;
70071;SDS011;57434;42.794;23.302;2022-12-24T09:18:25;64.35;;;29.75;;
70071;SDS011;57434;42.794;23.302;2022-12-24T09:19:28;66.13;;;29.88;;
70071;SDS011;57434;42.794;23.302;2022-12-24T09:20:30;65.28;;;27.67;;
70071;SDS011;57434;42.794;23.302;2022-12-24T09:21:31;61.42;;;28.35;;
70071;SDS011;57434;42.794;23.302;2022-12-24T09:22:34;63.65;;;28.52;;
70071;SDS011;57434;42.794;23.302;2022-12-24T09:23:37;58.67;;;28.07;;
70071;SDS011;57434;42.794;23.302;2022-12-24T09:24:39;56.13;;;28.67;;
70071;SDS011;57434;42.794;23.302;2022-12-24T09:25:41;63.20;;;29.42;;
70071;SDS011;57434;42.794;23.302;2022-12-24T09:26:44;68.32;;;31.92;;
70071;SDS011;57434;42.794;23.302;2022-12-24T09:27:46;69.13;;;32.72;;
70071;SDS011;57434;42.794;23.302;2022-12-24T09:28:48;80.13;;;38.08;;
70071;SDS011;57434;42.794;23.302;2022-12-24T09:29:51;71.78;;;32.80;;
70071;SDS011;57434;42.794;23.302;2022-12-24T09:30:57;75.82;;;34.65;;
70071;SDS011;57434;42.794;23.302;2022-12-24T09:32:00;77.07;;;35.15;;
70071;SDS011;57434;42.794;23.302;2022-12-24T09:33:02;74.95;;;33.47;;
70071;SDS011;57434;42.794;23.302;2022-12-24T09:34:04;70.87;;;33.73;;
70071;SDS011;57434;42.794;23.302;2022-12-24T09:35:06;68.70;;;32.30;;
70071;SDS011;57434;42.794;23.302;2022-12-24T09:36:08;71.47;;;32.17;;
70071;SDS011;57434;42.794;23.302;2022-12-24T09:37:10;70.20;;;33.50;;
70071;SDS011;57434;42.794;23.302;2022-12-24T09:38:12;73.57;;;37.05;;
70071;SDS011;57434;42.794;23.302;2022-12-24T09:39:14;70.28;;;34.90;;
70071;SDS011;57434;42.794;23.302;2022-12-24T09:40:24;74.20;;;35.42;;
70071;SDS011;57434;42.794;23.302;2022-12-24T09:42:53;69.30;;;33.50;;
70071;SDS011;57434;42.794;23.302;2022-12-24T09:43:57;70.93;;;34.40;;
70071;SDS011;57434;42.794;23.302;2022-12-24T09:47:32;67.65;;;32.38;;
70071;SDS011;57434;42.794;23.302;2022-12-24T09:48:41;67.30;;;33.33;;
70071;SDS011;57434;42.794;23.302;2022-12-24T09:49:48;67.15;;;30.55;;
70071;SDS011;57434;42.794;23.302;2022-12-24T09:50:56;60.05;;;29.17;;
70071;SDS011;57434;42.794;23.302;2022-12-24T09:52:14;59.10;;;29.42;;
70071;SDS011;57434;42.794;23.302;2022-12-24T09:54:55;67.93;;;31.63;;
70071;SDS011;57434;42.794;23.302;2022-12-24T09:56:25;65.25;;;29.83;;
70071;SDS011;57434;42.794;23.302;2022-12-24T09:57:33;60.73;;;29.90;;
70071;SDS011;57434;42.794;23.302;2022-12-24T09:58:38;54.03;;;28.73;;
70071;SDS011;57434;42.794;23.302;2022-12-24T09:59:44;68.13;;;32.17;;
70071;SDS011;57434;42.794;23.302;2022-12-24T10:00:48;59.22;;;30.77;;
70071;SDS011;57434;42.794;23.302;2022-12-24T10:01:53;63.13;;;31.08;;
70071;SDS011;57434;42.794;23.302;2022-12-24T10:02:55;57.83;;;30.27;;
70071;SDS011;57434;42.794;23.302;2022-12-24T10:03:57;58.33;;;30.27;;
70071;SDS011;57434;42.794;23.302;2022-12-24T10:05:04;56.75;;;26.50;;
70071;SDS011;57434;42.794;23.302;2022-12-24T10:06:15;65.25;;;30.27;;
70071;SDS011;57434;42.794;23.302;2022-12-24T10:10:41;75.00;;;32.58;;
70071;SDS011;57434;42.794;23.302;2022-12-24T10:12:03;67.40;;;30.83;;
70071;SDS011;57434;42.794;23.302;2022-12-24T10:13:16;66.32;;;31.77;;
70071;SDS011;57434;42.794;23.302;2022-12-24T10:16:27;60.20;;;30.40;;
70071;SDS011;57434;42.794;23.302;2022-12-24T10:21:52;54.72;;;28.05;;
70071;SDS011;57434;42.794;23.302;2022-12-24T10:23:52;60.27;;;32.53;;
70071;SDS011;57434;42.794;23.302;2022-12-24T10:25:23;59.50;;;27.88;;
70071;SDS011;57434;42.794;23.302;2022-12-24T10:28:01;62.35;;;29.23;;
70071;SDS011;57434;42.794;23.302;2022-12-24T10:30:19;60.33;;;31.00;;
70071;SDS011;57434;42.794;23.302;2022-12-24T10:31:28;63.10;;;32.60;;
70071;SDS011;57434;42.794;23.302;2022-12-24T10:32:32;73.18;;;35.83;;
70071;SDS011;57434;42.794;23.302;2022-12-24T10:34:46;61.03;;;30.20;;
70071;SDS011;57434;42.794;23.302;2022-12-24T10:35:54;66.67;;;30.43;;
70071;SDS011;57434;42.794;23.302;2022-12-24T10:36:59;60.97;;;31.52;;
70071;SDS011;57434;42.794;23.302;2022-12-24T10:38:02;58.95;;;32.08;;
70071;SDS011;57434;42.794;23.302;2022-12-24T10:39:09;64.50;;;33.55;;
70071;SDS011;57434;42.794;23.302;2022-12-24T10:40:33;61.60;;;30.50;;
70071;SDS011;57434;42.794;23.302;2022-12-24T10:41:41;66.63;;;36.35;;
70071;SDS011;57434;42.794;23.302;2022-12-24T10:42:43;63.45;;;33.67;;
70071;SDS011;57434;42.794;23.302;2022-12-24T10:43:51;70.57;;;38.30;;
70071;SDS011;57434;42.794;23.302;2022-12-24T10:44:56;75.43;;;40.90;;
70071;SDS011;57434;42.794;23.302;2022-12-24T10:46:04;79.70;;;39.00;;
70071;SDS011;57434;42.794;23.302;2022-12-24T10:47:11;88.17;;;45.90;;
70071;SDS011;57434;42.794;23.302;2022-12-24T10:49:01;81.28;;;41.75;;
70071;SDS011;57434;42.794;23.302;2022-12-24T10:49:59;79.10;;;38.03;;
70071;SDS011;57434;42.794;23.302;2022-12-24T10:52:34;92.65;;;41.75;;
70071;SDS011;57434;42.794;23.302;2022-12-24T10:53:48;88.90;;;40.47;;
70071;SDS011;57434;42.794;23.302;2022-12-24T10:55:08;89.63;;;41.17;;
70071;SDS011;57434;42.794;23.302;2022-12-24T10:56:21;88.82;;;40.35;;
70071;SDS011;57434;42.794;23.302;2022-12-24T10:57:25;95.57;;;44.72;;
70071;SDS011;57434;42.794;23.302;2022-12-24T10:58:50;80.30;;;37.47;;
70071;SDS011;57434;42.794;23.302;2022-12-24T10:59:54;82.90;;;37.57;;
70071;SDS011;57434;42.794;23.302;2022-12-24T11:00:58;80.45;;;37.75;;
70071;SDS011;57434;42.794;23.302;2022-12-24T11:02:01;70.20;;;36.45;;
70071;SDS011;57434;42.794;23.302;2022-12-24T11:04:14;62.85;;;31.75;;
70071;SDS011;57434;42.794;23.302;2022-12-24T11:05:57;64.20;;;32.22;;
70071;SDS011;57434;42.794;23.302;2022-12-24T11:07:03;65.75;;;32.58;;
70071;SDS011;57434;42.794;23.302;2022-12-24T11:08:16;68.40;;;33.80;;
70071;SDS011;57434;42.794;23.302;2022-12-24T11:09:23;62.40;;;31.48;;
70071;SDS011;57434;42.794;23.302;2022-12-24T11:10:29;57.08;;;29.38;;
70071;SDS011;57434;42.794;23.302;2022-12-24T11:11:34;63.67;;;30.07;;
70071;SDS011;57434;42.794;23.302;2022-12-24T11:12:38;61.25;;;29.60;;
70071;SDS011;57434;42.794;23.302;2022-12-24T11:14:10;56.88;;;29.20;;
70071;SDS011;57434;42.794;23.302;2022-12-24T11:15:18;61.92;;;26.67;;
70071;SDS011;57434;42.794;23.302;2022-12-24T11:16:33;57.08;;;27.23;;
70071;SDS011;57434;42.794;23.302;2022-12-24T11:17:37;54.13;;;26.60;;
70071;SDS011;57434;42.794;23.302;2022-12-24T11:18:50;55.83;;;28.17;;
70071;SDS011;57434;42.794;23.302;2022-12-24T11:19:55;53.13;;;26.77;;
70071;SDS011;57434;42.794;23.302;2022-12-24T11:20:59;59.28;;;28.40;;
70071;SDS011;57434;42.794;23.302;2022-12-24T11:22:04;58.47;;;29.00;;
70071;SDS011;57434;42.794;23.302;2022-12-24T11:23:13;60.10;;;28.90;;
70071;SDS011;57434;42.794;23.302;2022-12-24T11:25:28;58.53;;;28.98;;
70071;SDS011;57434;42.794;23.302;2022-12-24T11:26:35;56.45;;;27.30;;
70071;SDS011;57434;42.794;23.302;2022-12-24T11:27:40;63.72;;;29.52;;
70071;SDS011;57434;42.794;23.302;2022-12-24T11:30:30;51.80;;;25.20;;
70071;SDS011;57434;42.794;23.302;2022-12-24T11:31:33;47.55;;;23.88;;
70071;SDS011;57434;42.794;23.302;2022-12-24T11:32:38;50.47;;;24.15;;
70071;SDS011;57434;42.794;23.302;2022-12-24T11:33:48;48.88;;;24.27;;
70071;SDS011;57434;42.794;23.302;2022-12-24T11:34:53;53.77;;;28.07;;
70071;SDS011;57434;42.794;23.302;2022-12-24T11:36:01;58.65;;;28.92;;
70071;SDS011;57434;42.794;23.302;2022-12-24T11:38:18;60.65;;;30.00;;
70071;SDS011;57434;42.794;23.302;2022-12-24T11:39:24;68.97;;;32.95;;
70071;SDS011;57434;42.794;23.302;2022-12-24T11:40:30;63.60;;;31.73;;
70071;SDS011;57434;42.794;23.302;2022-12-24T11:41:48;70.45;;;33.25;;
70071;SDS011;57434;42.794;23.302;2022-12-24T11:42:57;67.90;;;33.55;;
70071;SDS011;57434;42.794;23.302;2022-12-24T11:44:01;67.93;;;35.97;;
70071;SDS011;57434;42.794;23.302;2022-12-24T11:45:05;69.50;;;34.65;;
70071;SDS011;57434;42.794;23.302;2022-12-24T11:46:13;70.80;;;36.17;;
70071;SDS011;57434;42.794;23.302;2022-12-24T11:47:38;69.75;;;34.35;;
70071;SDS011;57434;42.794;23.302;2022-12-24T11:48:41;73.72;;;34.35;;
70071;SDS011;57434;42.794;23.302;2022-12-24T11:49:43;71.72;;;34.35;;
70071;SDS011;57434;42.794;23.302;2022-12-24T11:50:49;74.65;;;35.35;;
70071;SDS011;57434;42.794;23.302;2022-12-24T11:53:19;67.95;;;34.13;;
70071;SDS011;57434;42.794;23.302;2022-12-24T11:54:28;76.55;;;35.83;;
70071;SDS011;57434;42.794;23.302;2022-12-24T11:57:06;66.97;;;31.63;;
70071;SDS011;57434;42.794;23.302;2022-12-24T11:58:25;69.70;;;34.77;;
70071;SDS011;57434;42.794;23.302;2022-12-24T11:59:40;66.80;;;30.63;;
70071;SDS011;57434;42.794;23.302;2022-12-24T12:00:49;66.30;;;30.65;;
70071;SDS011;57434;42.794;23.302;2022-12-24T12:01:56;64.35;;;28.70;;
70071;SDS011;57434;42.794;23.302;2022-12-24T12:02:59;58.90;;;30.35;;
70071;SDS011;57434;42.794;23.302;2022-12-24T12:04:21;64.97;;;29.50;;
70071;SDS011;57434;42.794;23.302;2022-12-24T12:05:31;62.00;;;30.67;;
70071;SDS011;57434;42.794;23.302;2022-12-24T12:07:49;57.25;;;30.10;;
70071;SDS011;57434;42.794;23.302;2022-12-24T12:08:56;58.97;;;28.48;;
70071;SDS011;57434;42.794;23.302;2022-12-24T12:10:05;59.67;;;31.23;;
70071;SDS011;57434;42.794;23.302;2022-12-24T12:11:10;58.30;;;28.88;;
70071;SDS011;57434;42.794;23.302;2022-12-24T12:12:21;63.67;;;30.65;;
70071;SDS011;57434;42.794;23.302;2022-12-24T12:13:28;57.75;;;28.75;;
70071;SDS011;57434;42.794;23.302;2022-12-24T12:14:37;65.57;;;29.35;;
70071;SDS011;57434;42.794;23.302;2022-12-24T12:15:48;59.63;;;30.52;;
70071;SDS011;57434;42.794;23.302;2022-12-24T12:18:38;62.05;;;28.52;;
70071;SDS011;57434;42.794;23.302;2022-12-24T12:19:46;61.13;;;28.67;;
70071;SDS011;57434;42.794;23.302;2022-12-24T12:21:01;59.53;;;28.83;;
70071;SDS011;57434;42.794;23.302;2022-12-24T12:22:10;58.07;;;27.60;;
70071;SDS011;57434;42.794;23.302;2022-12-24T12:23:31;55.72;;;27.15;;
70071;SDS011;57434;42.794;23.302;2022-12-24T12:24:40;52.05;;;27.75;;
70071;SDS011;57434;42.794;23.302;2022-12-24T12:30:30;50.25;;;23.77;;
70071;SDS011;57434;42.794;23.302;2022-12-24T12:31:41;57.28;;;27.27;;
70071;SDS011;57434;42.794;23.302;2022-12-24T12:32:52;58.72;;;26.30;;
70071;SDS011;57434;42.794;23.302;2022-12-24T12:35:21;63.10;;;28.80;;
70071;SDS011;57434;42.794;23.302;2022-12-24T12:36:25;62.55;;;30.85;;
70071;SDS011;57434;42.794;23.302;2022-12-24T12:37:35;61.78;;;29.50;;
70071;SDS011;57434;42.794;23.302;2022-12-24T12:38:41;69.50;;;31.13;;
70071;SDS011;57434;42.794;23.302;2022-12-24T12:39:45;63.22;;;30.00;;
70071;SDS011;57434;42.794;23.302;2022-12-24T12:41:32;74.65;;;36.20;;
70071;SDS011;57434;42.794;23.302;2022-12-24T12:42:30;56.00;;;28.65;;
70071;SDS011;57434;42.794;23.302;2022-12-24T12:43:40;58.35;;;29.60;;
70071;SDS011;57434;42.794;23.302;2022-12-24T12:50:22;81.15;;;37.72;;
70071;SDS011;57434;42.794;23.302;2022-12-24T12:51:27;89.82;;;40.33;;
70071;SDS011;57434;42.794;23.302;2022-12-24T12:54:08;83.70;;;40.80;;
70071;SDS011;57434;42.794;23.302;2022-12-24T12:56:33;87.50;;;41.15;;
70071;SDS011;57434;42.794;23.302;2022-12-24T12:57:37;89.10;;;41.60;;
70071;SDS011;57434;42.794;23.302;2022-12-24T12:59:58;84.90;;;42.50;;
70071;SDS011;57434;42.794;23.302;2022-12-24T13:06:18;94.78;;;43.72;;
70071;SDS011;57434;42.794;23.302;2022-12-24T13:12:35;84.15;;;38.90;;
70071;SDS011;57434;42.794;23.302;2022-12-24T13:19:15;72.00;;;33.90;;
70071;SDS011;57434;42.794;23.302;2022-12-24T13:20:28;66.43;;;35.67;;
70071;SDS011;57434;42.794;23.302;2022-12-24T13:21:33;75.88;;;36.65;;
70071;SDS011;57434;42.794;23.302;2022-12-24T13:22:37;74.15;;;35.25;;
70071;SDS011;57434;42.794;23.302;2022-12-24T13:23:40;78.68;;;37.75;;
70071;SDS011;57434;42.794;23.302;2022-12-24T13:24:46;72.20;;;35.45;;
70071;SDS011;57434;42.794;23.302;2022-12-24T13:25:55;76.13;;;37.47;;
70071;SDS011;57434;42.794;23.302;2022-12-24T13:34:37;72.78;;;36.03;;
70071;SDS011;57434;42.794;23.302;2022-12-24T13:36:15;70.78;;;35.17;;
70071;SDS011;57434;42.794;23.302;2022-12-24T13:37:22;64.28;;;31.75;;
70071;SDS011;57434;42.794;23.302;2022-12-24T13:38:29;65.03;;;31.20;;
70071;SDS011;57434;42.794;23.302;2022-12-24T13:44:02;212.15;;;80.57;;
70071;SDS011;57434;42.794;23.302;2022-12-24T13:49:16;80.55;;;36.78;;
70071;SDS011;57434;42.794;23.302;2022-12-24T13:50:44;61.38;;;30.10;;
70071;SDS011;57434;42.794;23.302;2022-12-24T13:52:03;63.00;;;27.53;;
70071;SDS011;57434;42.794;23.302;2022-12-24T13:54:25;62.88;;;28.42;;
70071;SDS011;57434;42.794;23.302;2022-12-24T13:55:29;60.72;;;28.30;;
70071;SDS011;57434;42.794;23.302;2022-12-24T13:56:34;60.60;;;30.67;;
70071;SDS011;57434;42.794;23.302;2022-12-24T13:57:42;61.83;;;30.25;;
70071;SDS011;57434;42.794;23.302;2022-12-24T14:01:43;58.83;;;30.75;;
70071;SDS011;57434;42.794;23.302;2022-12-24T14:04:45;76.17;;;32.93;;
70071;SDS011;57434;42.794;23.302;2022-12-24T14:05:56;74.75;;;34.72;;
70071;SDS011;57434;42.794;23.302;2022-12-24T14:07:05;69.43;;;33.38;;
70071;SDS011;57434;42.794;23.302;2022-12-24T14:08:10;68.50;;;35.85;;
70071;SDS011;57434;42.794;23.302;2022-12-24T14:09:26;73.18;;;36.13;;
70071;SDS011;57434;42.794;23.302;2022-12-24T14:10:39;70.18;;;35.55;;
70071;SDS011;57434;42.794;23.302;2022-12-24T14:12:54;75.13;;;37.25;;
70071;SDS011;57434;42.794;23.302;2022-12-24T14:16:46;83.73;;;39.60;;
70071;SDS011;57434;42.794;23.302;2022-12-24T14:17:51;81.07;;;40.67;;
70071;SDS011;57434;42.794;23.302;2022-12-24T14:19:09;92.20;;;43.05;;
70071;SDS011;57434;42.794;23.302;2022-12-24T14:20:15;87.78;;;42.22;;
70071;SDS011;57434;42.794;23.302;2022-12-24T14:21:22;74.00;;;38.30;;
70071;SDS011;57434;42.794;23.302;2022-12-24T14:22:37;82.47;;;40.58;;
70071;SDS011;57434;42.794;23.302;2022-12-24T14:23:55;85.65;;;41.65;;
70071;SDS011;57434;42.794;23.302;2022-12-24T14:24:58;87.10;;;40.85;;